»·PEaware :: N196BM L52-L88

N196BM :: L52-L88

FLIGHT INFORMATION

Flight Status: Arrived
Operator: Privately registered:
United States
More flights under this callsign
Pilot: Hans K. (17756)
Aircraft: BEECH AIRCRAFT BONANZA
(BE36)
More flights by this aircraft type
Origin: L52 Oceano Co
United States
Destination: L88 New Cuyama
United States
More flights between these airports :: More routes between these airports
Route: FLW
File this flight plan on PilotEdge
Remarks:
Altitude:
(Current/Filed)
3,000ft
Speed:
(Current/Filed)
120kts
Departed: 11-Oct-18 11:21 AM
Arrived: 11-Oct-18 11:47 AM
Distance/Time
Traveled:
47nm/0:26
Distance/Time
To Go:
Arrived

Flight Plot

Page will automatically refresh every two minutes.


Map Options




Map Legend


Flown Route
Filed Route
Departure Airport
Arrival Airport
Navaid (VOR, NDB)
Fix

Horizontal Profiles

Position Reports

Time Latitude Longitude Heading Altitude Ground
Speed
11-Oct-18 10:53 35.103122 -120.623897 212 18ft 0kts
11-Oct-18 10:54 35.103122 -120.623897 212 18ft 0kts
11-Oct-18 10:55 35.103122 -120.623897 212 18ft 0kts
11-Oct-18 10:56 35.103122 -120.623897 212 18ft 0kts
11-Oct-18 10:57 35.103122 -120.623897 212 18ft 0kts
11-Oct-18 10:58 35.103122 -120.623897 212 18ft 0kts
11-Oct-18 10:59 35.103122 -120.623897 212 18ft 0kts
11-Oct-18 11:00 35.103122 -120.623897 212 18ft 0kts
11-Oct-18 11:01 35.103122 -120.623897 212 18ft 0kts
11-Oct-18 11:02 35.103121 -120.623898 212 18ft 0kts
11-Oct-18 11:03 35.103121 -120.623898 212 18ft 0kts
11-Oct-18 11:04 35.103121 -120.623898 212 18ft 0kts
11-Oct-18 11:05 35.103121 -120.623898 212 18ft 0kts
11-Oct-18 11:06 35.103121 -120.623898 212 18ft 0kts
11-Oct-18 11:07 35.103121 -120.623898 212 18ft 0kts
11-Oct-18 11:08 35.103121 -120.623898 212 18ft 0kts
11-Oct-18 11:09 35.103121 -120.623898 212 18ft 0kts
11-Oct-18 11:10 35.103121 -120.623898 212 18ft 0kts
11-Oct-18 11:11 35.103121 -120.623898 212 18ft 0kts
11-Oct-18 11:12 35.103121 -120.623898 212 18ft 0kts
11-Oct-18 11:13 35.103121 -120.623898 212 18ft 0kts
11-Oct-18 11:14 35.103121 -120.623898 212 18ft 0kts
11-Oct-18 11:15 35.103120 -120.623899 212 18ft 0kts
11-Oct-18 11:16 35.102653 -120.623769 215 18ft 0kts
11-Oct-18 11:17 35.101472 -120.623149 123 18ft 9kts
11-Oct-18 11:18 35.099917 -120.620472 124 18ft 6kts
11-Oct-18 11:19 35.099382 -120.619196 29 18ft 0kts
11-Oct-18 11:20 35.099384 -120.619195 29 18ft 0kts
11-Oct-18 11:21 35.099384 -120.619195 29 18ft 0kts
11-Oct-18 11:22 35.099384 -120.619195 29 18ft 0kts
11-Oct-18 11:23 35.105257 -120.629490 303 188ft 88kts
11-Oct-18 11:24 35.110085 -120.657655 210 1596ft 98kts
11-Oct-18 11:25 35.091321 -120.631567 120 2738ft 117kts
11-Oct-18 11:26 35.083484 -120.590396 97 3321ft 141kts
11-Oct-18 11:27 35.079331 -120.536388 72 2989ft 167kts
11-Oct-18 11:28 35.099112 -120.487759 61 2986ft 152kts
11-Oct-18 11:29 35.116746 -120.440683 74 2835ft 156kts
11-Oct-18 11:30 35.118270 -120.387897 99 2602ft 158kts
11-Oct-18 11:31 35.107285 -120.335982 104 2384ft 158kts
11-Oct-18 11:32 35.100996 -120.283492 91 2328ft 148kts
11-Oct-18 11:33 35.102524 -120.235080 86 2697ft 146kts
11-Oct-18 11:34 35.103568 -120.184796 91 2951ft 142kts
11-Oct-18 11:35 35.101155 -120.134591 95 2994ft 154kts
11-Oct-18 11:36 35.098762 -120.082332 91 3042ft 155kts
11-Oct-18 11:37 35.097863 -120.029195 91 3041ft 157kts
11-Oct-18 11:38 35.096276 -119.975741 92 3041ft 157kts
11-Oct-18 11:39 35.094743 -119.922265 92 3056ft 156kts
11-Oct-18 11:40 35.093297 -119.872585 92 3793ft 136kts
11-Oct-18 11:41 35.099802 -119.834156 87 4928ft 113kts
11-Oct-18 11:42 35.069782 -119.818482 190 5088ft 153kts
11-Oct-18 11:43 35.036889 -119.797736 125 5050ft 156kts
11-Oct-18 11:44 34.998561 -119.776397 164 4882ft 159kts
11-Oct-18 11:45 34.955094 -119.761088 149 4211ft 165kts
11-Oct-18 11:46 34.937312 -119.712854 102 3563ft 157kts
11-Oct-18 11:47 34.918577 -119.673911 129 3113ft 101kts
11-Oct-18 11:48 34.931109 -119.666682 278 2460ft 90kts
11-Oct-18 11:49 34.937973 -119.689711 294 2207ft 40kts
11-Oct-18 11:50 34.939768 -119.693403 25 2207ft 0kts
11-Oct-18 11:51 34.939803 -119.693383 25 2207ft 0kts

Navigation Log

Ident Type
Flight plan parsing failed, navigation log unavailable